Terminal Aerodrome Forecast
Issued by NWS

Current Version | Previous Version | Text Only | Print | Product List | Glossary On
Versions: 1 2 3 4 5 6 7 8 9 10 11 12 13 14
000
FTUS42 KMLB 270024 AAA
TAFFPR
TAF AMD
KFPR 270024Z 2700/2724 29005KT P6SM FEW020 OVC250
     FM270200 VRB03KT P6SM FEW030 BKN250
     FM270300 00000KT P6SM SCT025
     FM271400 VRB04KT P6SM SCT025 BKN250
     FM271700 09008KT P6SM VCTS SCT035CB BKN060=

USA.gov is the U.S. government's official web portal to all federal, state and local government web resources and services.